Time;durP1;ratioP1;P1;durP2;ratioP2;P2;SDS_P1;SDS_P2;PMS_P1;PMS_P2;Temp;Humidity;BMP_temperature;BMP_pressure;BME280_temperature;BME280_humidity;BME280_pressure;Samples;Min_cycle;Max_cycle;Signal;HPM_P1;HPM_P2
2022/01/03 00:02:08;;;;;;;;;;;10.00;99.90;;;;;;4998849;28;19934;-79
2022/01/03 00:04:37;;;;;;;;;;;9.90;99.90;;;;;;4999527;28;19939;-83
2022/01/03 00:07:05;;;;;;;;;;;9.90;99.90;;;;;;4983271;28;20225;-81
2022/01/03 00:09:35;;;;;;;;;;;10.00;99.90;;;;;;4999774;28;19926;-79
2022/01/03 00:12:04;;;;;;;;;;;10.00;99.90;;;;;;5010034;28;19926;-79
2022/01/03 00:14:32;;;;;;;;;;;9.90;99.90;;;;;;4966648;28;19953;-79
2022/01/03 00:17:00;;;;;;;;;;;10.10;99.90;;;;;;4993456;28;19936;-81
2022/01/03 00:19:31;;;;;;;;;;;9.80;99.90;;;;;;4997855;28;19925;-80
2022/01/03 00:22:05;;;;;;;;;;;10.00;99.90;;;;;;4997876;28;19933;-83
2022/01/03 00:24:35;;;;;;;;;;;9.80;99.90;;;;;;4999641;28;19940;-83
2022/01/03 00:27:04;;;;;;;;;;;9.90;99.90;;;;;;4997982;28;19926;-83
2022/01/03 00:29:41;;;;;;;;;;;9.90;99.90;;;;;;4982027;28;19972;-82
2022/01/03 00:32:11;;;;;;;;;;;9.80;99.90;;;;;;4983979;28;19938;-81
2022/01/03 00:34:40;;;;;;;;;;;9.80;99.90;;;;;;4997711;28;19934;-80
2022/01/03 00:37:09;;;;;;;;;;;9.80;99.90;;;;;;4995986;28;19933;-81
2022/01/03 00:39:38;;;;;;;;;;;9.90;99.90;;;;;;5013607;28;19929;-80
2022/01/03 00:42:05;;;;;;;;;;;9.80;99.90;;;;;;4980943;28;20125;-81
2022/01/03 00:44:34;;;;;;;;;;;9.80;99.90;;;;;;4996893;28;19930;-83
2022/01/03 00:47:01;;;;;;;;;;;9.80;99.90;;;;;;5002186;28;19941;-81
2022/01/03 00:49:30;;;;;;;;;;;10.90;99.90;;;;;;4999628;28;19925;-85
2022/01/03 00:52:02;;;;;;;;;;;9.80;99.90;;;;;;4996343;28;19953;-81
2022/01/03 00:54:32;;;;;;;;;;;9.60;99.90;;;;;;5000839;28;19929;-87
2022/01/03 00:57:12;;;;;;;;;;;9.60;99.90;;;;;;4999489;28;19930;-82
2022/01/03 00:59:46;;;;;;;;;;;9.60;99.90;;;;;;4977982;28;19930;-80
2022/01/03 01:02:16;;;;;;;;;;;9.70;99.90;;;;;;5017447;28;19933;-83
2022/01/03 01:04:46;;;;;;;;;;;9.50;99.90;;;;;;4980447;28;19945;-82
2022/01/03 01:07:17;;;;;;;;;;;9.50;99.90;;;;;;5002021;28;19926;-81
2022/01/03 01:09:51;;;;;;;;;;;9.50;99.90;;;;;;5003785;28;19932;-85
2022/01/03 01:12:22;;;;;;;;;;;9.60;99.90;;;;;;4989023;28;19931;-81
2022/01/03 01:14:54;;;;;;;;;;;9.40;99.90;;;;;;4980782;28;19933;-81
2022/01/03 01:17:25;;;;;;;;;;;9.50;99.90;;;;;;4982300;28;19926;-81
2022/01/03 01:20:20;;;;;;;;;;;9.50;99.90;;;;;;4982596;28;19933;-80
2022/01/03 01:22:51;;;;;;;;;;;9.50;99.90;;;;;;4981614;28;19934;-81
2022/01/03 01:25:27;;;;;;;;;;;9.50;99.90;;;;;;4995934;28;20182;-87
2022/01/03 01:27:56;;;;;;;;;;;9.50;99.90;;;;;;4999730;28;19926;-81
2022/01/03 01:30:26;;;;;;;;;;;9.50;99.90;;;;;;4998490;28;20410;-82
2022/01/03 01:33:15;;;;;;;;;;;9.70;99.90;;;;;;4982702;28;19926;-82
2022/01/03 01:35:55;;;;;;;;;;;9.50;99.90;;;;;;4995269;28;19926;-81
2022/01/03 01:38:33;;;;;;;;;;;9.40;99.90;;;;;;4997715;28;19930;-81
2022/01/03 01:41:02;;;;;;;;;;;9.90;99.90;;;;;;4978199;28;19934;-81
2022/01/03 01:43:43;;;;;;;;;;;9.70;99.90;;;;;;4961989;29;19926;-82
2022/01/03 01:46:18;;;;;;;;;;;9.70;99.90;;;;;;4973398;28;19926;-80
2022/01/03 01:48:50;;;;;;;;;;;9.80;99.90;;;;;;4985048;28;20457;-80
2022/01/03 01:51:21;;;;;;;;;;;10.00;99.90;;;;;;4984754;28;19930;-80
2022/01/03 01:53:54;;;;;;;;;;;9.80;99.90;;;;;;4969551;28;20310;-82
2022/01/03 01:56:27;;;;;;;;;;;10.10;99.90;;;;;;4982289;28;19941;-81
2022/01/03 01:59:19;;;;;;;;;;;9.90;99.90;;;;;;4984985;28;19930;-83
2022/01/03 02:02:11;;;;;;;;;;;10.00;99.90;;;;;;4985365;28;19960;-84
2022/01/03 02:04:45;;;;;;;;;;;10.00;99.90;;;;;;5000598;28;19930;-80
2022/01/03 02:07:15;;;;;;;;;;;8.50;99.90;;;;;;4965764;29;20074;-80
2022/01/03 02:09:48;;;;;;;;;;;10.00;99.90;;;;;;4958417;28;19926;-81
2022/01/03 02:12:20;;;;;;;;;;;10.00;99.90;;;;;;5002763;28;19956;-84
2022/01/03 02:14:52;;;;;;;;;;;10.00;99.90;;;;;;5024569;28;19929;-81
2022/01/03 02:17:22;;;;;;;;;;;10.00;99.90;;;;;;4992999;28;19940;-81
2022/01/03 02:20:10;;;;;;;;;;;10.00;99.90;;;;;;5009028;28;19926;-80
2022/01/03 02:22:39;;;;;;;;;;;9.90;99.90;;;;;;5024882;28;19925;-81
2022/01/03 02:25:13;;;;;;;;;;;9.90;99.90;;;;;;5023872;28;19936;-85
2022/01/03 02:27:41;;;;;;;;;;;9.90;99.90;;;;;;5005576;28;19930;-85
2022/01/03 02:30:10;;;;;;;;;;;9.90;99.90;;;;;;5005922;28;19926;-83
2022/01/03 02:32:39;;;;;;;;;;;9.90;99.90;;;;;;4988331;28;19926;-80
2022/01/03 02:35:07;;;;;;;;;;;9.80;99.90;;;;;;5016491;28;19929;-83
2022/01/03 02:37:38;;;;;;;;;;;9.90;99.90;;;;;;5024499;28;19927;-84
2022/01/03 02:40:18;;;;;;;;;;;9.80;99.90;;;;;;4990444;28;19929;-83
2022/01/03 02:42:49;;;;;;;;;;;9.80;99.90;;;;;;5022749;28;19932;-80
2022/01/03 02:45:22;;;;;;;;;;;9.80;99.90;;;;;;5004899;28;19932;-80
2022/01/03 02:47:57;;;;;;;;;;;9.80;99.90;;;;;;5024663;28;19933;-80
2022/01/03 02:50:26;;;;;;;;;;;9.70;99.90;;;;;;5018902;28;19945;-81
2022/01/03 02:52:54;;;;;;;;;;;9.70;99.90;;;;;;5002864;28;19987;-81
2022/01/03 02:55:30;;;;;;;;;;;9.70;99.90;;;;;;5012585;28;19929;-81
2022/01/03 02:58:06;;;;;;;;;;;9.70;99.90;;;;;;5016844;28;19921;-80
2022/01/03 03:00:45;;;;;;;;;;;10.00;99.90;;;;;;4997352;28;19953;-80
2022/01/03 03:03:22;;;;;;;;;;;9.60;99.90;;;;;;5006344;28;20374;-81
2022/01/03 03:05:53;;;;;;;;;;;9.60;99.90;;;;;;5003880;28;19932;-81
2022/01/03 03:08:23;;;;;;;;;;;9.60;99.90;;;;;;4987095;28;19926;-79
2022/01/03 03:10:51;;;;;;;;;;;9.60;99.90;;;;;;5021579;28;19940;-81
2022/01/03 03:13:19;;;;;;;;;;;9.60;99.90;;;;;;5023137;28;20680;-79
2022/01/03 03:15:48;;;;;;;;;;;9.70;99.90;;;;;;4980328;28;19929;-80
2022/01/03 03:18:19;;;;;;;;;;;9.20;99.90;;;;;;4978189;28;19930;-80
2022/01/03 03:20:49;;;;;;;;;;;9.80;99.90;;;;;;4987881;28;19930;-80
2022/01/03 03:23:18;;;;;;;;;;;9.60;99.90;;;;;;5002983;28;19926;-80
2022/01/03 03:25:47;;;;;;;;;;;9.60;99.90;;;;;;4992109;28;19958;-81
2022/01/03 03:28:15;;;;;;;;;;;9.60;99.90;;;;;;5023665;28;19939;-82
2022/01/03 03:30:45;;;;;;;;;;;9.60;99.90;;;;;;5004899;28;19936;-80
2022/01/03 03:33:19;;;;;;;;;;;9.60;99.90;;;;;;5022765;28;19925;-80
2022/01/03 03:35:52;;;;;;;;;;;9.70;99.90;;;;;;5021623;28;19939;-80
2022/01/03 03:38:25;;;;;;;;;;;9.70;99.90;;;;;;5013719;28;19925;-81
2022/01/03 03:40:56;;;;;;;;;;;9.70;99.90;;;;;;5005442;28;19932;-81
2022/01/03 03:43:30;;;;;;;;;;;9.70;99.90;;;;;;5022520;28;19925;-82
2022/01/03 03:46:00;;;;;;;;;;;9.70;99.90;;;;;;5002153;28;20507;-80
2022/01/03 03:48:29;;;;;;;;;;;9.80;99.90;;;;;;5023000;28;19929;-83
2022/01/03 03:50:57;;;;;;;;;;;9.70;99.90;;;;;;5001890;28;20511;-83
2022/01/03 03:53:26;;;;;;;;;;;9.80;99.90;;;;;;5003045;28;19926;-85
2022/01/03 03:55:54;;;;;;;;;;;9.80;99.90;;;;;;4978060;28;19930;-81
2022/01/03 03:58:28;;;;;;;;;;;9.80;99.90;;;;;;5006624;28;19932;-88
2022/01/03 04:00:58;;;;;;;;;;;10.00;99.90;;;;;;4986291;28;19926;-83
2022/01/03 04:03:41;;;;;;;;;;;9.80;99.90;;;;;;4990930;28;20732;-81
2022/01/03 04:06:12;;;;;;;;;;;9.90;99.90;;;;;;5008508;28;19925;-80
2022/01/03 04:08:40;;;;;;;;;;;10.10;99.90;;;;;;5007753;28;19945;-79
2022/01/03 04:11:08;;;;;;;;;;;9.80;99.90;;;;;;5018786;28;19932;-80
2022/01/03 04:13:38;;;;;;;;;;;9.80;99.90;;;;;;5006779;28;19925;-80
2022/01/03 04:16:07;;;;;;;;;;;9.80;99.90;;;;;;5024604;28;19930;-79
2022/01/03 04:18:36;;;;;;;;;;;9.90;99.90;;;;;;5024074;28;19952;-79
2022/01/03 04:21:06;;;;;;;;;;;10.00;99.90;;;;;;5012871;28;19929;-80
2022/01/03 04:23:34;;;;;;;;;;;9.90;99.90;;;;;;4991779;28;19926;-80
2022/01/03 04:26:04;;;;;;;;;;;9.90;99.90;;;;;;5007375;28;19941;-79
2022/01/03 04:28:32;;;;;;;;;;;9.80;99.90;;;;;;5023242;28;19940;-81
2022/01/03 04:31:00;;;;;;;;;;;9.80;99.90;;;;;;5022974;28;19926;-80
2022/01/03 04:33:32;;;;;;;;;;;9.80;99.90;;;;;;5006378;28;19932;-80
2022/01/03 04:36:01;;;;;;;;;;;9.80;99.90;;;;;;5022595;28;19933;-80
2022/01/03 04:38:29;;;;;;;;;;;9.80;99.90;;;;;;5023168;28;19925;-80
2022/01/03 04:40:57;;;;;;;;;;;10.00;99.90;;;;;;5039283;28;19925;-82
2022/01/03 04:43:24;;;;;;;;;;;9.80;99.90;;;;;;4970665;28;20283;-81
2022/01/03 04:45:54;;;;;;;;;;;8.60;99.90;;;;;;5017260;28;19929;-80
2022/01/03 04:48:24;;;;;;;;;;;8.80;99.90;;;;;;5026490;28;19936;-80
2022/01/03 04:50:51;;;;;;;;;;;9.70;99.90;;;;;;5022799;28;19933;-79
2022/01/03 04:53:21;;;;;;;;;;;9.70;99.90;;;;;;5006514;28;19933;-80
2022/01/03 04:55:48;;;;;;;;;;;9.80;99.90;;;;;;4991386;28;19925;-79
2022/01/03 04:58:17;;;;;;;;;;;9.70;99.90;;;;;;5023333;28;19936;-79
2022/01/03 05:00:45;;;;;;;;;;;9.80;99.90;;;;;;4989199;28;19933;-80
2022/01/03 05:03:14;;;;;;;;;;;9.80;99.90;;;;;;5006643;28;19925;-79
2022/01/03 05:05:42;;;;;;;;;;;9.80;99.90;;;;;;5022216;28;19929;-80
2022/01/03 05:08:11;;;;;;;;;;;9.80;99.90;;;;;;5005511;28;19929;-79
2022/01/03 05:10:39;;;;;;;;;;;9.80;99.90;;;;;;5005674;28;19929;-79
2022/01/03 05:13:07;;;;;;;;;;;9.80;99.90;;;;;;5023026;28;19929;-80
2022/01/03 05:15:35;;;;;;;;;;;9.80;99.90;;;;;;4989163;28;19925;-83
2022/01/03 05:18:07;;;;;;;;;;;9.80;99.90;;;;;;4991480;28;19925;-83
2022/01/03 05:20:36;;;;;;;;;;;9.80;99.90;;;;;;5024520;28;19932;-80
2022/01/03 05:23:05;;;;;;;;;;;9.70;99.90;;;;;;5008816;28;19933;-83
2022/01/03 05:25:33;;;;;;;;;;;9.80;99.90;;;;;;5010044;28;19936;-83
2022/01/03 05:28:01;;;;;;;;;;;9.80;99.90;;;;;;5026692;28;19925;-83
2022/01/03 05:30:29;;;;;;;;;;;9.80;99.90;;;;;;4995528;28;19933;-80
2022/01/03 05:32:58;;;;;;;;;;;9.80;99.90;;;;;;5007328;28;20418;-81
2022/01/03 05:35:26;;;;;;;;;;;9.80;99.90;;;;;;5006857;28;19949;-80
2022/01/03 05:37:54;;;;;;;;;;;9.80;99.90;;;;;;5008170;28;19937;-79
2022/01/03 05:40:25;;;;;;;;;;;9.90;99.90;;;;;;5020504;28;20139;-80
2022/01/03 05:42:54;;;;;;;;;;;9.80;99.90;;;;;;5023354;28;19937;-80
2022/01/03 05:45:27;;;;;;;;;;;9.90;99.90;;;;;;5010479;28;19953;-81
2022/01/03 05:47:55;;;;;;;;;;;9.90;99.90;;;;;;5028610;28;19929;-80
2022/01/03 05:50:24;;;;;;;;;;;9.90;99.90;;;;;;5010874;28;19929;-81
2022/01/03 05:52:53;;;;;;;;;;;10.00;99.90;;;;;;5010729;28;19931;-80
2022/01/03 05:55:21;;;;;;;;;;;10.00;99.90;;;;;;4994921;28;19930;-81
2022/01/03 05:57:50;;;;;;;;;;;10.00;99.90;;;;;;5007954;28;19925;-80
2022/01/03 06:00:25;;;;;;;;;;;9.10;99.90;;;;;;4979171;28;20530;-80
2022/01/03 06:02:57;;;;;;;;;;;10.00;99.90;;;;;;5004225;28;19930;-80
2022/01/03 06:06:19;;;;;;;;;;;10.00;99.90;;;;;;5007716;28;19929;-81
2022/01/03 06:08:19;;;;;;;;;;;10.10;99.90;;;;;;4996533;28;19925;-81
2022/01/03 06:10:49;;;;;;;;;;;9.70;99.90;;;;;;5007811;28;19925;-80
2022/01/03 06:13:28;;;;;;;;;;;10.10;99.90;;;;;;5007214;28;19929;-80
2022/01/03 06:15:57;;;;;;;;;;;10.20;99.90;;;;;;5023648;28;19962;-80
2022/01/03 06:18:27;;;;;;;;;;;10.20;99.90;;;;;;5007883;28;19936;-80
2022/01/03 06:21:03;;;;;;;;;;;10.20;99.90;;;;;;5004859;28;19934;-83
2022/01/03 06:23:36;;;;;;;;;;;10.20;99.90;;;;;;5010056;28;19936;-81
2022/01/03 06:26:07;;;;;;;;;;;10.10;99.90;;;;;;5012664;28;19926;-80
2022/01/03 06:28:50;;;;;;;;;;;10.20;99.90;;;;;;5007695;28;19925;-86
2022/01/03 06:31:20;;;;;;;;;;;10.20;99.90;;;;;;5008052;28;19936;-83
2022/01/03 06:33:50;;;;;;;;;;;10.20;99.90;;;;;;5006559;28;19936;-81
2022/01/03 06:36:19;;;;;;;;;;;10.10;99.90;;;;;;5007162;28;20001;-80
2022/01/03 06:38:54;;;;;;;;;;;10.10;99.90;;;;;;5010619;28;19929;-82
2022/01/03 06:41:23;;;;;;;;;;;10.10;99.90;;;;;;5010976;28;19929;-84
2022/01/03 06:43:54;;;;;;;;;;;10.10;99.90;;;;;;5040263;28;19931;-80
2022/01/03 06:46:25;;;;;;;;;;;10.10;99.90;;;;;;5007070;28;19934;-86
2022/01/03 06:48:52;;;;;;;;;;;10.10;99.90;;;;;;5024671;28;19929;-82
2022/01/03 06:51:21;;;;;;;;;;;10.10;99.90;;;;;;5007626;28;19937;-81
2022/01/03 06:53:49;;;;;;;;;;;10.10;99.90;;;;;;5006513;28;19929;-80
2022/01/03 06:56:17;;;;;;;;;;;10.10;99.90;;;;;;5006470;28;19936;-82
2022/01/03 06:58:46;;;;;;;;;;;10.00;99.90;;;;;;4986910;28;19933;-81
2022/01/03 07:01:16;;;;;;;;;;;10.10;99.90;;;;;;5002943;28;20398;-80
2022/01/03 07:03:44;;;;;;;;;;;10.00;99.90;;;;;;4989217;28;20318;-80
2022/01/03 07:06:12;;;;;;;;;;;10.00;99.90;;;;;;5023705;28;19932;-81
2022/01/03 07:08:41;;;;;;;;;;;10.00;99.90;;;;;;5023355;28;19932;-81
2022/01/03 07:11:09;;;;;;;;;;;10.00;99.90;;;;;;5029780;28;19926;-83
2022/01/03 07:18:55;;;;;;;;;;;10.00;99.90;;;;;;5023397;28;19925;-81
2022/01/03 07:19:11;;;;;;;;;;;10.00;99.90;;;;;;5024147;28;20594;-81
2022/01/03 07:21:41;;;;;;;;;;;10.00;99.90;;;;;;5004775;28;19937;-81
2022/01/03 07:24:12;;;;;;;;;;;10.20;99.90;;;;;;5022242;28;19926;-81
2022/01/03 07:26:41;;;;;;;;;;;10.10;99.90;;;;;;5022554;28;19930;-82
2022/01/03 07:29:09;;;;;;;;;;;10.10;99.90;;;;;;5022684;28;19921;-80
2022/01/03 07:31:38;;;;;;;;;;;10.00;99.90;;;;;;5023389;28;19936;-84
2022/01/03 07:34:07;;;;;;;;;;;10.00;99.90;;;;;;5024059;28;19926;-81
2022/01/03 07:36:34;;;;;;;;;;;10.30;99.90;;;;;;5023178;28;20086;-85
2022/01/03 07:39:03;;;;;;;;;;;10.10;99.90;;;;;;4990139;28;19933;-83
2022/01/03 07:41:32;;;;;;;;;;;9.90;99.90;;;;;;4986592;28;19936;-83
2022/01/03 07:44:02;;;;;;;;;;;9.90;99.90;;;;;;5006597;28;19940;-85
2022/01/03 07:46:30;;;;;;;;;;;9.90;99.90;;;;;;5023528;28;19940;-81
2022/01/03 07:49:00;;;;;;;;;;;10.00;99.90;;;;;;5022276;28;19933;-83
2022/01/03 07:51:30;;;;;;;;;;;9.90;99.90;;;;;;4991339;28;19926;-83
2022/01/03 07:53:59;;;;;;;;;;;10.00;99.90;;;;;;5003779;28;20493;-84
2022/01/03 07:56:27;;;;;;;;;;;9.90;99.90;;;;;;5014649;28;19929;-82
2022/01/03 07:58:54;;;;;;;;;;;9.80;99.90;;;;;;4989512;28;19930;-81
2022/01/03 08:01:22;;;;;;;;;;;9.80;99.90;;;;;;5024063;28;19925;-81
2022/01/03 08:03:52;;;;;;;;;;;9.90;99.90;;;;;;5023297;28;19930;-81
2022/01/03 08:06:39;;;;;;;;;;;9.90;99.90;;;;;;5006519;28;19930;-81
2022/01/03 08:09:07;;;;;;;;;;;9.80;99.90;;;;;;5027346;28;20454;-81
2022/01/03 08:11:35;;;;;;;;;;;9.80;99.90;;;;;;5031121;28;19925;-80
2022/01/03 08:14:03;;;;;;;;;;;9.80;99.90;;;;;;5015327;28;19941;-80
2022/01/03 08:16:30;;;;;;;;;;;9.80;99.90;;;;;;5017335;28;19931;-79
2022/01/03 08:18:59;;;;;;;;;;;9.80;99.90;;;;;;5006421;28;19935;-81
2022/01/03 08:21:29;;;;;;;;;;;9.80;99.90;;;;;;5002967;28;19935;-80
2022/01/03 08:23:58;;;;;;;;;;;9.80;99.90;;;;;;4989115;28;19930;-79
2022/01/03 08:26:26;;;;;;;;;;;9.80;99.90;;;;;;5005268;28;20214;-80
2022/01/03 08:28:54;;;;;;;;;;;8.90;99.90;;;;;;5004896;28;19926;-79
2022/01/03 08:31:23;;;;;;;;;;;9.20;99.90;;;;;;5022574;28;19926;-80
2022/01/03 08:33:53;;;;;;;;;;;9.90;99.90;;;;;;5005558;28;19925;-79
2022/01/03 08:36:20;;;;;;;;;;;9.90;99.90;;;;;;5022433;28;19925;-81
2022/01/03 08:38:48;;;;;;;;;;;9.90;99.90;;;;;;5024354;28;19925;-80
2022/01/03 08:41:17;;;;;;;;;;;9.90;99.90;;;;;;5010414;28;19953;-80
2022/01/03 08:43:46;;;;;;;;;;;10.00;99.90;;;;;;5002859;28;19940;-80
2022/01/03 08:46:15;;;;;;;;;;;9.90;99.90;;;;;;4995896;28;19925;-80
2022/01/03 08:48:44;;;;;;;;;;;10.00;99.90;;;;;;5006820;28;19929;-80
2022/01/03 08:51:13;;;;;;;;;;;10.00;99.90;;;;;;5024961;28;19932;-81
2022/01/03 08:53:43;;;;;;;;;;;10.10;99.90;;;;;;5006622;28;19925;-82
2022/01/03 08:56:13;;;;;;;;;;;9.90;99.90;;;;;;4989632;28;19937;-79
2022/01/03 08:58:42;;;;;;;;;;;9.90;99.90;;;;;;5004905;28;19926;-83
2022/01/03 09:01:10;;;;;;;;;;;9.20;99.90;;;;;;5005519;28;19925;-81
2022/01/03 09:03:38;;;;;;;;;;;9.90;99.90;;;;;;5004829;28;19925;-80
2022/01/03 09:06:10;;;;;;;;;;;9.90;99.90;;;;;;4993501;28;19926;-80
2022/01/03 09:08:39;;;;;;;;;;;10.50;99.90;;;;;;5010731;28;19930;-83
2022/01/03 09:11:07;;;;;;;;;;;9.90;99.90;;;;;;5024514;28;19932;-81
2022/01/03 09:13:35;;;;;;;;;;;9.90;99.90;;;;;;5011444;28;19930;-80
2022/01/03 09:16:07;;;;;;;;;;;9.90;99.90;;;;;;5001985;28;19926;-81
2022/01/03 09:18:35;;;;;;;;;;;9.90;99.90;;;;;;5001939;28;20341;-82
2022/01/03 09:21:03;;;;;;;;;;;10.00;99.90;;;;;;5018500;28;19926;-80
2022/01/03 09:23:35;;;;;;;;;;;9.80;99.90;;;;;;5017584;28;19926;-80
2022/01/03 09:28:51;;;;;;;;;;;9.90;99.90;;;;;;5001562;28;19926;-81
2022/01/03 09:31:24;;;;;;;;;;;9.90;99.90;;;;;;4984355;28;19937;-84
2022/01/03 09:33:56;;;;;;;;;;;10.00;99.90;;;;;;4982896;28;20387;-81
2022/01/03 09:36:29;;;;;;;;;;;9.90;99.90;;;;;;4981797;28;19930;-81
2022/01/03 09:39:23;;;;;;;;;;;9.90;99.90;;;;;;5011988;28;19926;-83
2022/01/03 09:42:08;;;;;;;;;;;9.90;99.90;;;;;;5019766;28;19922;-81
2022/01/03 09:44:36;;;;;;;;;;;9.90;99.90;;;;;;5003025;28;19925;-80
2022/01/03 09:47:08;;;;;;;;;;;10.00;99.90;;;;;;5018025;28;19926;-83
2022/01/03 09:50:02;;;;;;;;;;;10.10;99.90;;;;;;5002307;28;20717;-80
2022/01/03 09:52:54;;;;;;;;;;;;;;;;;;;;;
2022/01/03 09:55:32;;;;;;;;;;;10.00;99.90;;;;;;5000609;28;19964;-80
2022/01/03 09:58:21;;;;;;;;;;;10.10;99.90;;;;;;4985511;28;19926;-80
2022/01/03 10:01:09;;;;;;;;;;;10.10;99.90;;;;;;5002206;28;19930;-80
2022/01/03 10:03:38;;;;;;;;;;;10.20;99.90;;;;;;5017247;28;19932;-80
2022/01/03 10:06:31;;;;;;;;;;;10.10;99.90;;;;;;4985041;28;19952;-80
2022/01/03 10:09:35;;;;;;;;;;;10.10;99.90;;;;;;5011914;28;19925;-81
2022/01/03 10:12:03;;;;;;;;;;;10.10;99.90;;;;;;5036194;28;19937;-79
2022/01/03 10:14:31;;;;;;;;;;;10.10;99.90;;;;;;5005050;28;19933;-79
2022/01/03 10:16:59;;;;;;;;;;;10.20;99.90;;;;;;5006424;28;19933;-80
2022/01/03 10:19:27;;;;;;;;;;;10.20;99.90;;;;;;5021703;28;19940;-80
2022/01/03 10:21:56;;;;;;;;;;;10.20;99.90;;;;;;5005109;28;19925;-79
2022/01/03 10:24:35;;;;;;;;;;;10.20;99.90;;;;;;5006081;28;19925;-81
2022/01/03 10:27:03;;;;;;;;;;;10.20;99.90;;;;;;5019203;28;19929;-80
2022/01/03 10:29:31;;;;;;;;;;;10.20;99.90;;;;;;4992835;28;19930;-80
2022/01/03 10:32:01;;;;;;;;;;;10.20;99.90;;;;;;4998514;28;19926;-79
2022/01/03 10:34:31;;;;;;;;;;;10.20;99.90;;;;;;5000083;28;20380;-80
2022/01/03 10:37:08;;;;;;;;;;;10.10;99.90;;;;;;5014875;28;19925;-80
2022/01/03 10:39:36;;;;;;;;;;;10.30;99.90;;;;;;5012367;28;19936;-79
2022/01/03 10:42:19;;;;;;;;;;;10.30;99.90;;;;;;5018107;28;19932;-79
2022/01/03 10:44:47;;;;;;;;;;;10.30;99.90;;;;;;4992752;28;19930;-79
2022/01/03 10:47:29;;;;;;;;;;;9.10;99.90;;;;;;5001473;28;19930;-80
2022/01/03 10:49:57;;;;;;;;;;;10.30;99.90;;;;;;4989696;28;19937;-80
2022/01/03 10:52:28;;;;;;;;;;;10.20;99.90;;;;;;4984916;28;19933;-79
2022/01/03 10:55:09;;;;;;;;;;;10.30;99.90;;;;;;5002537;28;19930;-80
2022/01/03 10:57:47;;;;;;;;;;;10.50;99.90;;;;;;5019115;28;20312;-79
2022/01/03 11:00:16;;;;;;;;;;;10.40;99.90;;;;;;5003649;28;19930;-80
2022/01/03 11:03:14;;;;;;;;;;;10.40;99.90;;;;;;4995953;28;19937;-80
2022/01/03 11:05:50;;;;;;;;;;;10.40;99.90;;;;;;4998309;28;19925;-79
2022/01/03 11:11:12;;;;;;;;;;;10.90;99.90;;;;;;4982436;28;19945;-80
2022/01/03 11:13:41;;;;;;;;;;;10.60;99.90;;;;;;5011264;28;19925;-80
2022/01/03 11:16:09;;;;;;;;;;;10.60;99.90;;;;;;4998010;28;19953;-80
2022/01/03 11:18:38;;;;;;;;;;;10.60;99.90;;;;;;4982085;28;19930;-80
2022/01/03 11:21:14;;;;;;;;;;;10.70;99.90;;;;;;5012397;28;19930;-79
2022/01/03 11:23:47;;;;;;;;;;;10.60;99.90;;;;;;4979199;28;19933;-80
2022/01/03 11:26:19;;;;;;;;;;;10.60;99.90;;;;;;5001686;28;19926;-80
2022/01/03 11:28:48;;;;;;;;;;;10.80;99.90;;;;;;4998011;28;19940;-80
2022/01/03 11:31:20;;;;;;;;;;;10.70;99.90;;;;;;4982307;28;19937;-80
2022/01/03 11:33:48;;;;;;;;;;;9.00;99.90;;;;;;4997198;28;19925;-80
2022/01/03 11:36:37;;;;;;;;;;;10.70;99.90;;;;;;4983334;28;19937;-80
2022/01/03 11:39:08;;;;;;;;;;;10.70;99.90;;;;;;4991660;28;20367;-80
2022/01/03 11:41:40;;;;;;;;;;;10.70;99.90;;;;;;5011009;28;19925;-79
2022/01/03 11:44:12;;;;;;;;;;;10.70;99.90;;;;;;4997930;28;19934;-80
2022/01/03 11:46:41;;;;;;;;;;;10.70;99.90;;;;;;5007078;28;19947;-80
2022/01/03 11:49:09;;;;;;;;;;;10.80;99.90;;;;;;4994562;28;19937;-79
2022/01/03 11:51:37;;;;;;;;;;;10.00;99.90;;;;;;5002978;28;19926;-79
2022/01/03 11:54:14;;;;;;;;;;;10.90;99.90;;;;;;4992208;28;19938;-81
2022/01/03 11:56:47;;;;;;;;;;;10.80;99.90;;;;;;5008248;28;20090;-79
2022/01/03 12:05:01;;;;;;;;;;;10.90;99.90;;;;;;4997858;28;19926;-80
2022/01/03 12:07:29;;;;;;;;;;;10.90;99.90;;;;;;4967675;28;20316;-79
2022/01/03 12:10:10;;;;;;;;;;;10.90;99.90;;;;;;5011675;28;19934;-81
2022/01/03 12:12:39;;;;;;;;;;;10.70;99.90;;;;;;4994586;28;19941;-79
2022/01/03 12:15:27;;;;;;;;;;;11.00;99.90;;;;;;4999368;28;19941;-78
2022/01/03 12:17:55;;;;;;;;;;;11.00;99.90;;;;;;4999542;28;19926;-80
2022/01/03 12:20:37;;;;;;;;;;;11.00;99.90;;;;;;4998879;28;20343;-82
2022/01/03 12:23:05;;;;;;;;;;;11.10;99.90;;;;;;4978537;28;19940;-79
2022/01/03 12:25:35;;;;;;;;;;;11.10;99.90;;;;;;4997229;28;19930;-80
2022/01/03 12:28:04;;;;;;;;;;;11.10;99.90;;;;;;4999025;28;19941;-79
2022/01/03 12:30:53;;;;;;;;;;;11.10;99.90;;;;;;5013905;28;20809;-78
2022/01/03 12:33:22;;;;;;;;;;;11.20;99.90;;;;;;4996842;28;19926;-79
2022/01/03 12:36:11;;;;;;;;;;;11.20;99.90;;;;;;5010543;28;20383;-81
2022/01/03 12:39:04;;;;;;;;;;;11.20;99.90;;;;;;4996614;28;19957;-81
2022/01/03 12:41:43;;;;;;;;;;;11.30;99.90;;;;;;4995276;28;19930;-82
2022/01/03 12:44:12;;;;;;;;;;;11.30;99.90;;;;;;4996532;28;21049;-81
2022/01/03 12:46:40;;;;;;;;;;;11.30;99.90;;;;;;4995937;28;19929;-81
2022/01/03 12:49:29;;;;;;;;;;;11.30;99.90;;;;;;4998247;28;19926;-79
2022/01/03 12:52:12;;;;;;;;;;;11.30;99.90;;;;;;4991092;28;19934;-80
2022/01/03 12:55:34;;;;;;;;;;;11.40;99.90;;;;;;4997043;28;19940;-79
2022/01/03 12:58:08;;;;;;;;;;;11.40;99.90;;;;;;4998523;28;19933;-81
2022/01/03 13:00:38;;;;;;;;;;;12.00;99.90;;;;;;4996409;28;19926;-80
2022/01/03 13:03:26;;;;;;;;;;;11.50;99.90;;;;;;4997852;28;19930;-80
2022/01/03 13:06:10;;;;;;;;;;;11.40;99.90;;;;;;5013658;28;19937;-80
2022/01/03 13:09:05;;;;;;;;;;;11.40;99.90;;;;;;4997045;28;19933;-82
2022/01/03 13:12:01;;;;;;;;;;;11.40;99.90;;;;;;5010687;28;19926;-81
2022/01/03 13:14:30;;;;;;;;;;;11.40;99.90;;;;;;4997989;28;19933;-80
2022/01/03 13:16:59;;;;;;;;;;;11.50;99.90;;;;;;5017384;28;19934;-81
2022/01/03 13:19:29;;;;;;;;;;;11.30;99.90;;;;;;4999748;28;19929;-83
2022/01/03 13:22:00;;;;;;;;;;;11.40;99.90;;;;;;5014808;28;19934;-83
2022/01/03 13:24:38;;;;;;;;;;;11.40;99.90;;;;;;5000864;28;19940;-80
2022/01/03 13:27:09;;;;;;;;;;;11.40;99.90;;;;;;5015784;28;19946;-79
2022/01/03 13:29:39;;;;;;;;;;;11.40;99.90;;;;;;4996474;28;19925;-80
2022/01/03 13:32:07;;;;;;;;;;;11.40;99.90;;;;;;5000332;28;20766;-80
2022/01/03 13:34:36;;;;;;;;;;;11.40;99.90;;;;;;4998008;28;20197;-79
2022/01/03 13:37:05;;;;;;;;;;;11.40;99.90;;;;;;4999738;28;19926;-81
2022/01/03 13:39:37;;;;;;;;;;;11.40;99.90;;;;;;5009893;28;19933;-80
2022/01/03 13:42:19;;;;;;;;;;;11.30;99.90;;;;;;4999959;28;19929;-80
2022/01/03 13:50:19;;;;;;;;;;;11.40;99.90;;;;;;5021338;28;19934;-82
2022/01/03 13:52:48;;;;;;;;;;;11.40;99.90;;;;;;4996536;28;19940;-82
2022/01/03 13:55:16;;;;;;;;;;;11.40;99.90;;;;;;5020368;28;19930;-80
2022/01/03 13:57:44;;;;;;;;;;;11.50;99.90;;;;;;5003735;28;19948;-81
2022/01/03 14:00:16;;;;;;;;;;;11.20;99.90;;;;;;5005006;28;19925;-81
2022/01/03 14:02:45;;;;;;;;;;;9.90;99.90;;;;;;5019897;28;20311;-84
2022/01/03 14:05:15;;;;;;;;;;;11.50;99.90;;;;;;5015880;28;19925;-82
2022/01/03 14:07:51;;;;;;;;;;;11.50;99.90;;;;;;5020688;28;19936;-85
2022/01/03 14:10:36;;;;;;;;;;;11.50;99.90;;;;;;5005414;28;19926;-81
2022/01/03 14:13:06;;;;;;;;;;;11.50;99.90;;;;;;4997595;28;19925;-81
2022/01/03 14:16:02;;;;;;;;;;;11.50;99.90;;;;;;5008354;28;19926;-82
2022/01/03 14:18:34;;;;;;;;;;;11.50;99.90;;;;;;4999719;28;19945;-81
2022/01/03 14:21:06;;;;;;;;;;;11.50;99.90;;;;;;5006357;28;19930;-81
2022/01/03 14:23:39;;;;;;;;;;;11.50;99.90;;;;;;5002794;28;19925;-81
2022/01/03 14:26:21;;;;;;;;;;;11.40;99.90;;;;;;4984809;28;19934;-82
2022/01/03 14:29:08;;;;;;;;;;;11.50;99.90;;;;;;5012886;28;20138;-81
2022/01/03 14:31:42;;;;;;;;;;;11.40;99.90;;;;;;5013972;28;19930;-80
2022/01/03 14:34:11;;;;;;;;;;;11.40;99.90;;;;;;5000090;28;19929;-81
2022/01/03 14:36:40;;;;;;;;;;;10.70;99.90;;;;;;4996728;28;19926;-81
2022/01/03 14:39:08;;;;;;;;;;;11.00;99.90;;;;;;4996525;28;19934;-80
2022/01/03 14:41:41;;;;;;;;;;;11.30;99.90;;;;;;4997863;28;20032;-81
2022/01/03 14:44:12;;;;;;;;;;;11.70;99.90;;;;;;5000024;28;19929;-79
2022/01/03 14:46:44;;;;;;;;;;;11.40;99.90;;;;;;4999190;28;19930;-83
2022/01/03 14:49:17;;;;;;;;;;;11.50;99.90;;;;;;4995298;28;20521;-81
2022/01/03 14:51:47;;;;;;;;;;;11.30;99.90;;;;;;4981572;28;19929;-82
2022/01/03 14:54:17;;;;;;;;;;;11.30;99.90;;;;;;5007897;28;19929;-82
2022/01/03 14:56:47;;;;;;;;;;;10.80;99.90;;;;;;4997313;28;19926;-81
2022/01/03 14:59:18;;;;;;;;;;;11.10;99.90;;;;;;5000183;28;20281;-81
2022/01/03 15:01:52;;;;;;;;;;;11.30;99.90;;;;;;5008356;28;19945;-80
2022/01/03 15:04:21;;;;;;;;;;;11.30;99.90;;;;;;4999980;28;19934;-81
2022/01/03 15:07:14;;;;;;;;;;;11.20;99.90;;;;;;5011500;28;19933;-79
2022/01/03 15:09:58;;;;;;;;;;;11.30;99.90;;;;;;5002423;28;19926;-80
2022/01/03 15:12:46;;;;;;;;;;;11.20;99.90;;;;;;5001859;28;19936;-82
2022/01/03 15:15:22;;;;;;;;;;;12.30;99.90;;;;;;5010096;28;19937;-83